sensor_id;sensor_type;location;lat;lon;timestamp;P1;durP1;ratioP1;P2;durP2;ratioP2
23634;SDS011;11994;51.038;16.974;2023-03-14T00:00:56;12.10;;;6.80;;
23634;SDS011;11994;51.038;16.974;2023-03-14T00:03:22;11.50;;;5.30;;
23634;SDS011;11994;51.038;16.974;2023-03-14T00:05:47;8.60;;;4.60;;
23634;SDS011;11994;51.038;16.974;2023-03-14T00:08:12;10.00;;;4.20;;
23634;SDS011;11994;51.038;16.974;2023-03-14T00:10:38;8.10;;;5.00;;
23634;SDS011;11994;51.038;16.974;2023-03-14T00:13:03;12.40;;;7.10;;
23634;SDS011;11994;51.038;16.974;2023-03-14T00:15:29;10.90;;;5.20;;
23634;SDS011;11994;51.038;16.974;2023-03-14T00:17:54;8.40;;;4.40;;
23634;SDS011;11994;51.038;16.974;2023-03-14T00:20:20;10.40;;;5.50;;
23634;SDS011;11994;51.038;16.974;2023-03-14T00:22:45;8.50;;;5.20;;
23634;SDS011;11994;51.038;16.974;2023-03-14T00:25:11;8.00;;;5.20;;
23634;SDS011;11994;51.038;16.974;2023-03-14T00:27:37;10.00;;;5.10;;
23634;SDS011;11994;51.038;16.974;2023-03-14T00:30:03;10.90;;;6.20;;
23634;SDS011;11994;51.038;16.974;2023-03-14T00:32:29;11.50;;;6.40;;
23634;SDS011;11994;51.038;16.974;2023-03-14T00:34:54;11.50;;;5.40;;
23634;SDS011;11994;51.038;16.974;2023-03-14T00:37:20;11.70;;;6.00;;
23634;SDS011;11994;51.038;16.974;2023-03-14T00:39:45;11.20;;;5.60;;
23634;SDS011;11994;51.038;16.974;2023-03-14T00:42:11;9.30;;;5.60;;
23634;SDS011;11994;51.038;16.974;2023-03-14T00:44:36;9.20;;;5.90;;
23634;SDS011;11994;51.038;16.974;2023-03-14T00:47:02;10.50;;;6.50;;
23634;SDS011;11994;51.038;16.974;2023-03-14T00:49:27;12.60;;;7.10;;
23634;SDS011;11994;51.038;16.974;2023-03-14T00:51:53;10.60;;;5.80;;
23634;SDS011;11994;51.038;16.974;2023-03-14T00:54:18;9.90;;;5.70;;
23634;SDS011;11994;51.038;16.974;2023-03-14T00:56:45;7.60;;;4.50;;
23634;SDS011;11994;51.038;16.974;2023-03-14T00:59:10;9.00;;;5.10;;
23634;SDS011;11994;51.038;16.974;2023-03-14T01:01:36;9.40;;;4.90;;
23634;SDS011;11994;51.038;16.974;2023-03-14T01:04:01;11.30;;;4.80;;
23634;SDS011;11994;51.038;16.974;2023-03-14T01:06:27;11.10;;;4.70;;
23634;SDS011;11994;51.038;16.974;2023-03-14T01:08:54;8.60;;;4.80;;
23634;SDS011;11994;51.038;16.974;2023-03-14T01:11:28;8.30;;;4.40;;
23634;SDS011;11994;51.038;16.974;2023-03-14T01:13:55;11.20;;;4.30;;
23634;SDS011;11994;51.038;16.974;2023-03-14T01:16:22;6.30;;;3.50;;
23634;SDS011;11994;51.038;16.974;2023-03-14T01:18:49;7.00;;;3.80;;
23634;SDS011;11994;51.038;16.974;2023-03-14T01:21:19;10.10;;;4.00;;
23634;SDS011;11994;51.038;16.974;2023-03-14T01:23:47;8.20;;;4.10;;
23634;SDS011;11994;51.038;16.974;2023-03-14T01:26:14;6.00;;;3.90;;
23634;SDS011;11994;51.038;16.974;2023-03-14T01:28:44;10.40;;;4.00;;
23634;SDS011;11994;51.038;16.974;2023-03-14T01:31:11;6.70;;;3.90;;
23634;SDS011;11994;51.038;16.974;2023-03-14T01:33:37;7.30;;;4.10;;
23634;SDS011;11994;51.038;16.974;2023-03-14T01:36:04;6.40;;;3.80;;
23634;SDS011;11994;51.038;16.974;2023-03-14T01:38:30;6.80;;;4.00;;
23634;SDS011;11994;51.038;16.974;2023-03-14T01:40:57;9.00;;;4.30;;
23634;SDS011;11994;51.038;16.974;2023-03-14T01:43:23;5.50;;;3.70;;
23634;SDS011;11994;51.038;16.974;2023-03-14T01:51:18;7.50;;;3.80;;
23634;SDS011;11994;51.038;16.974;2023-03-14T01:53:54;7.10;;;3.60;;
23634;SDS011;11994;51.038;16.974;2023-03-14T01:56:26;7.40;;;4.30;;
23634;SDS011;11994;51.038;16.974;2023-03-14T01:58:52;8.50;;;4.60;;
23634;SDS011;11994;51.038;16.974;2023-03-14T02:01:18;12.50;;;5.30;;
23634;SDS011;11994;51.038;16.974;2023-03-14T02:03:59;6.70;;;4.40;;
23634;SDS011;11994;51.038;16.974;2023-03-14T02:06:32;6.70;;;4.00;;
23634;SDS011;11994;51.038;16.974;2023-03-14T02:09:28;6.40;;;3.90;;
23634;SDS011;11994;51.038;16.974;2023-03-14T02:11:54;7.00;;;3.80;;
23634;SDS011;11994;51.038;16.974;2023-03-14T02:14:32;7.50;;;4.10;;
23634;SDS011;11994;51.038;16.974;2023-03-14T02:17:00;8.30;;;4.10;;
23634;SDS011;11994;51.038;16.974;2023-03-14T02:19:35;7.10;;;4.10;;
23634;SDS011;11994;51.038;16.974;2023-03-14T02:22:15;9.20;;;4.30;;
23634;SDS011;11994;51.038;16.974;2023-03-14T02:27:26;6.10;;;3.90;;
23634;SDS011;11994;51.038;16.974;2023-03-14T02:32:20;7.80;;;4.20;;
23634;SDS011;11994;51.038;16.974;2023-03-14T02:34:48;7.10;;;3.70;;
23634;SDS011;11994;51.038;16.974;2023-03-14T02:37:19;8.30;;;4.20;;
23634;SDS011;11994;51.038;16.974;2023-03-14T02:39:47;7.10;;;4.00;;
23634;SDS011;11994;51.038;16.974;2023-03-14T02:42:14;7.00;;;3.80;;
23634;SDS011;11994;51.038;16.974;2023-03-14T02:47:34;7.50;;;3.80;;
23634;SDS011;11994;51.038;16.974;2023-03-14T02:50:03;7.20;;;3.60;;
23634;SDS011;11994;51.038;16.974;2023-03-14T02:52:33;8.10;;;4.10;;
23634;SDS011;11994;51.038;16.974;2023-03-14T02:54:58;8.60;;;4.00;;
23634;SDS011;11994;51.038;16.974;2023-03-14T02:57:23;6.10;;;3.90;;
23634;SDS011;11994;51.038;16.974;2023-03-14T02:59:49;8.70;;;4.50;;
23634;SDS011;11994;51.038;16.974;2023-03-14T03:02:14;7.40;;;3.70;;
23634;SDS011;11994;51.038;16.974;2023-03-14T03:04:40;7.60;;;3.90;;
23634;SDS011;11994;51.038;16.974;2023-03-14T03:07:05;8.50;;;3.90;;
23634;SDS011;11994;51.038;16.974;2023-03-14T03:09:30;6.60;;;3.40;;
23634;SDS011;11994;51.038;16.974;2023-03-14T03:11:56;5.90;;;3.50;;
23634;SDS011;11994;51.038;16.974;2023-03-14T03:14:21;6.40;;;3.70;;
23634;SDS011;11994;51.038;16.974;2023-03-14T03:16:46;5.60;;;3.90;;
23634;SDS011;11994;51.038;16.974;2023-03-14T03:19:12;5.40;;;3.30;;
23634;SDS011;11994;51.038;16.974;2023-03-14T03:21:38;6.80;;;3.70;;
23634;SDS011;11994;51.038;16.974;2023-03-14T03:24:04;8.20;;;3.80;;
23634;SDS011;11994;51.038;16.974;2023-03-14T03:26:30;7.10;;;3.50;;
23634;SDS011;11994;51.038;16.974;2023-03-14T03:28:55;6.30;;;3.50;;
23634;SDS011;11994;51.038;16.974;2023-03-14T03:31:20;7.00;;;4.10;;
23634;SDS011;11994;51.038;16.974;2023-03-14T03:33:46;6.90;;;3.70;;
23634;SDS011;11994;51.038;16.974;2023-03-14T03:36:11;6.00;;;3.60;;
23634;SDS011;11994;51.038;16.974;2023-03-14T03:38:37;7.30;;;3.70;;
23634;SDS011;11994;51.038;16.974;2023-03-14T03:41:06;10.90;;;3.30;;
23634;SDS011;11994;51.038;16.974;2023-03-14T03:43:32;8.40;;;3.20;;
23634;SDS011;11994;51.038;16.974;2023-03-14T03:45:57;7.50;;;3.50;;
23634;SDS011;11994;51.038;16.974;2023-03-14T03:48:23;7.20;;;3.50;;
23634;SDS011;11994;51.038;16.974;2023-03-14T03:50:48;6.90;;;3.50;;
23634;SDS011;11994;51.038;16.974;2023-03-14T03:53:13;6.60;;;3.40;;
23634;SDS011;11994;51.038;16.974;2023-03-14T03:55:42;5.90;;;3.40;;
23634;SDS011;11994;51.038;16.974;2023-03-14T03:58:07;8.20;;;3.50;;
23634;SDS011;11994;51.038;16.974;2023-03-14T04:00:33;6.40;;;3.30;;
23634;SDS011;11994;51.038;16.974;2023-03-14T04:02:58;7.20;;;3.50;;
23634;SDS011;11994;51.038;16.974;2023-03-14T04:05:24;9.70;;;3.30;;
23634;SDS011;11994;51.038;16.974;2023-03-14T04:07:49;6.40;;;3.60;;
23634;SDS011;11994;51.038;16.974;2023-03-14T04:10:15;9.90;;;3.40;;
23634;SDS011;11994;51.038;16.974;2023-03-14T04:12:40;5.70;;;3.40;;
23634;SDS011;11994;51.038;16.974;2023-03-14T04:15:06;6.30;;;3.30;;
23634;SDS011;11994;51.038;16.974;2023-03-14T04:17:32;7.20;;;3.40;;
23634;SDS011;11994;51.038;16.974;2023-03-14T04:19:57;6.50;;;3.10;;
23634;SDS011;11994;51.038;16.974;2023-03-14T04:22:22;6.50;;;3.30;;
23634;SDS011;11994;51.038;16.974;2023-03-14T04:24:48;6.70;;;3.40;;
23634;SDS011;11994;51.038;16.974;2023-03-14T04:27:13;5.60;;;3.20;;
23634;SDS011;11994;51.038;16.974;2023-03-14T04:29:39;5.10;;;2.90;;
23634;SDS011;11994;51.038;16.974;2023-03-14T04:32:05;5.40;;;3.40;;
23634;SDS011;11994;51.038;16.974;2023-03-14T04:34:30;6.90;;;3.30;;
23634;SDS011;11994;51.038;16.974;2023-03-14T04:36:56;5.90;;;3.20;;
23634;SDS011;11994;51.038;16.974;2023-03-14T04:39:21;6.80;;;3.50;;
23634;SDS011;11994;51.038;16.974;2023-03-14T04:41:46;6.30;;;3.60;;
23634;SDS011;11994;51.038;16.974;2023-03-14T04:44:12;6.40;;;4.10;;
23634;SDS011;11994;51.038;16.974;2023-03-14T04:46:37;6.70;;;3.70;;
23634;SDS011;11994;51.038;16.974;2023-03-14T04:49:03;6.00;;;3.40;;
23634;SDS011;11994;51.038;16.974;2023-03-14T04:51:28;5.60;;;3.40;;
23634;SDS011;11994;51.038;16.974;2023-03-14T04:53:53;7.00;;;3.80;;
23634;SDS011;11994;51.038;16.974;2023-03-14T04:56:19;6.10;;;3.90;;
23634;SDS011;11994;51.038;16.974;2023-03-14T04:58:45;6.80;;;4.10;;
23634;SDS011;11994;51.038;16.974;2023-03-14T05:01:10;8.50;;;4.40;;
23634;SDS011;11994;51.038;16.974;2023-03-14T05:03:36;8.00;;;4.70;;
23634;SDS011;11994;51.038;16.974;2023-03-14T05:06:03;8.20;;;5.20;;
23634;SDS011;11994;51.038;16.974;2023-03-14T05:08:29;6.30;;;4.60;;
23634;SDS011;11994;51.038;16.974;2023-03-14T05:10:55;9.80;;;4.60;;
23634;SDS011;11994;51.038;16.974;2023-03-14T05:13:22;9.50;;;4.10;;
23634;SDS011;11994;51.038;16.974;2023-03-14T05:15:48;6.60;;;3.90;;
23634;SDS011;11994;51.038;16.974;2023-03-14T05:18:15;7.70;;;3.90;;
23634;SDS011;11994;51.038;16.974;2023-03-14T05:20:41;6.80;;;3.60;;
23634;SDS011;11994;51.038;16.974;2023-03-14T05:23:08;5.60;;;3.50;;
23634;SDS011;11994;51.038;16.974;2023-03-14T05:25:33;8.60;;;4.30;;
23634;SDS011;11994;51.038;16.974;2023-03-14T05:27:59;10.10;;;4.10;;
23634;SDS011;11994;51.038;16.974;2023-03-14T05:30:24;7.60;;;3.90;;
23634;SDS011;11994;51.038;16.974;2023-03-14T05:32:49;8.50;;;3.90;;
23634;SDS011;11994;51.038;16.974;2023-03-14T05:35:15;7.60;;;3.80;;
23634;SDS011;11994;51.038;16.974;2023-03-14T05:37:40;10.00;;;3.50;;
23634;SDS011;11994;51.038;16.974;2023-03-14T05:40:06;7.10;;;3.90;;
23634;SDS011;11994;51.038;16.974;2023-03-14T05:42:32;8.20;;;3.60;;
23634;SDS011;11994;51.038;16.974;2023-03-14T05:44:58;6.80;;;3.90;;
23634;SDS011;11994;51.038;16.974;2023-03-14T05:47:23;8.70;;;3.90;;
23634;SDS011;11994;51.038;16.974;2023-03-14T05:49:49;7.00;;;4.00;;
23634;SDS011;11994;51.038;16.974;2023-03-14T05:52:14;5.50;;;3.80;;
23634;SDS011;11994;51.038;16.974;2023-03-14T05:54:40;6.00;;;3.70;;
23634;SDS011;11994;51.038;16.974;2023-03-14T05:57:06;6.50;;;4.20;;
23634;SDS011;11994;51.038;16.974;2023-03-14T05:59:31;8.80;;;4.50;;
23634;SDS011;11994;51.038;16.974;2023-03-14T06:01:57;11.80;;;3.70;;
23634;SDS011;11994;51.038;16.974;2023-03-14T06:04:22;7.70;;;3.50;;
23634;SDS011;11994;51.038;16.974;2023-03-14T06:06:47;9.00;;;4.30;;
23634;SDS011;11994;51.038;16.974;2023-03-14T06:09:13;7.80;;;3.70;;
23634;SDS011;11994;51.038;16.974;2023-03-14T06:11:38;8.60;;;4.10;;
23634;SDS011;11994;51.038;16.974;2023-03-14T06:14:03;6.40;;;3.80;;
23634;SDS011;11994;51.038;16.974;2023-03-14T06:16:29;7.90;;;4.00;;
23634;SDS011;11994;51.038;16.974;2023-03-14T06:18:54;8.50;;;4.10;;
23634;SDS011;11994;51.038;16.974;2023-03-14T06:21:20;7.50;;;3.70;;
23634;SDS011;11994;51.038;16.974;2023-03-14T06:23:46;9.70;;;3.80;;
23634;SDS011;11994;51.038;16.974;2023-03-14T06:26:11;6.00;;;3.50;;
23634;SDS011;11994;51.038;16.974;2023-03-14T06:28:37;6.60;;;3.60;;
23634;SDS011;11994;51.038;16.974;2023-03-14T06:31:03;7.90;;;4.40;;
23634;SDS011;11994;51.038;16.974;2023-03-14T06:33:28;7.60;;;4.40;;
23634;SDS011;11994;51.038;16.974;2023-03-14T06:35:54;9.60;;;5.00;;
23634;SDS011;11994;51.038;16.974;2023-03-14T06:38:19;7.70;;;4.30;;
23634;SDS011;11994;51.038;16.974;2023-03-14T06:40:45;10.30;;;4.50;;
23634;SDS011;11994;51.038;16.974;2023-03-14T06:43:10;8.60;;;4.60;;
23634;SDS011;11994;51.038;16.974;2023-03-14T06:45:36;11.50;;;4.90;;
23634;SDS011;11994;51.038;16.974;2023-03-14T06:48:01;9.40;;;5.50;;
23634;SDS011;11994;51.038;16.974;2023-03-14T06:50:27;8.40;;;5.10;;
23634;SDS011;11994;51.038;16.974;2023-03-14T06:52:52;8.60;;;4.60;;
23634;SDS011;11994;51.038;16.974;2023-03-14T06:55:17;7.10;;;4.20;;
23634;SDS011;11994;51.038;16.974;2023-03-14T06:57:43;9.00;;;4.80;;
23634;SDS011;11994;51.038;16.974;2023-03-14T07:00:09;9.30;;;4.60;;
23634;SDS011;11994;51.038;16.974;2023-03-14T07:02:36;7.30;;;4.10;;
23634;SDS011;11994;51.038;16.974;2023-03-14T07:05:01;7.90;;;4.30;;
23634;SDS011;11994;51.038;16.974;2023-03-14T07:07:27;7.80;;;4.10;;
23634;SDS011;11994;51.038;16.974;2023-03-14T07:09:53;8.00;;;4.40;;
23634;SDS011;11994;51.038;16.974;2023-03-14T07:12:18;8.70;;;4.00;;
23634;SDS011;11994;51.038;16.974;2023-03-14T07:14:44;8.80;;;4.40;;
23634;SDS011;11994;51.038;16.974;2023-03-14T07:17:09;10.80;;;5.60;;
23634;SDS011;11994;51.038;16.974;2023-03-14T07:19:34;9.30;;;5.80;;
23634;SDS011;11994;51.038;16.974;2023-03-14T07:22:00;14.90;;;7.90;;
23634;SDS011;11994;51.038;16.974;2023-03-14T07:24:25;15.20;;;8.90;;
23634;SDS011;11994;51.038;16.974;2023-03-14T07:26:51;18.30;;;10.60;;
23634;SDS011;11994;51.038;16.974;2023-03-14T07:29:16;17.70;;;9.60;;
23634;SDS011;11994;51.038;16.974;2023-03-14T07:31:42;18.50;;;10.40;;
23634;SDS011;11994;51.038;16.974;2023-03-14T07:34:07;16.80;;;9.70;;
23634;SDS011;11994;51.038;16.974;2023-03-14T07:36:32;16.20;;;8.30;;
23634;SDS011;11994;51.038;16.974;2023-03-14T07:38:58;16.40;;;8.10;;
23634;SDS011;11994;51.038;16.974;2023-03-14T07:41:23;13.20;;;6.00;;
23634;SDS011;11994;51.038;16.974;2023-03-14T07:43:49;10.20;;;5.10;;
23634;SDS011;11994;51.038;16.974;2023-03-14T07:46:14;11.70;;;6.70;;
23634;SDS011;11994;51.038;16.974;2023-03-14T07:48:40;12.00;;;6.00;;
23634;SDS011;11994;51.038;16.974;2023-03-14T07:51:06;9.10;;;5.10;;
23634;SDS011;11994;51.038;16.974;2023-03-14T07:53:31;9.10;;;4.90;;
23634;SDS011;11994;51.038;16.974;2023-03-14T07:55:56;8.10;;;4.90;;
23634;SDS011;11994;51.038;16.974;2023-03-14T07:58:22;9.30;;;4.20;;
23634;SDS011;11994;51.038;16.974;2023-03-14T08:00:48;12.00;;;4.70;;
23634;SDS011;11994;51.038;16.974;2023-03-14T08:03:14;11.80;;;4.40;;
23634;SDS011;11994;51.038;16.974;2023-03-14T08:05:39;9.30;;;4.30;;
23634;SDS011;11994;51.038;16.974;2023-03-14T08:08:05;8.00;;;4.80;;
23634;SDS011;11994;51.038;16.974;2023-03-14T08:10:30;7.20;;;4.60;;
23634;SDS011;11994;51.038;16.974;2023-03-14T08:12:57;7.60;;;4.80;;
23634;SDS011;11994;51.038;16.974;2023-03-14T08:15:23;7.90;;;4.40;;
23634;SDS011;11994;51.038;16.974;2023-03-14T08:17:49;7.80;;;4.80;;
23634;SDS011;11994;51.038;16.974;2023-03-14T08:20:16;8.10;;;4.50;;
23634;SDS011;11994;51.038;16.974;2023-03-14T08:22:42;8.10;;;4.70;;
23634;SDS011;11994;51.038;16.974;2023-03-14T08:25:08;10.00;;;4.40;;
23634;SDS011;11994;51.038;16.974;2023-03-14T08:27:33;7.80;;;4.30;;
23634;SDS011;11994;51.038;16.974;2023-03-14T08:29:59;11.50;;;6.10;;
23634;SDS011;11994;51.038;16.974;2023-03-14T08:32:24;12.00;;;5.80;;
23634;SDS011;11994;51.038;16.974;2023-03-14T08:34:49;13.90;;;6.70;;
23634;SDS011;11994;51.038;16.974;2023-03-14T08:37:15;15.60;;;8.50;;
23634;SDS011;11994;51.038;16.974;2023-03-14T08:39:40;12.70;;;7.10;;
23634;SDS011;11994;51.038;16.974;2023-03-14T08:42:06;13.90;;;6.50;;
23634;SDS011;11994;51.038;16.974;2023-03-14T08:44:31;9.90;;;5.40;;
23634;SDS011;11994;51.038;16.974;2023-03-14T08:46:57;10.50;;;6.00;;
23634;SDS011;11994;51.038;16.974;2023-03-14T08:49:22;7.30;;;4.00;;
23634;SDS011;11994;51.038;16.974;2023-03-14T08:51:48;8.80;;;4.10;;
23634;SDS011;11994;51.038;16.974;2023-03-14T08:54:13;8.40;;;4.40;;
23634;SDS011;11994;51.038;16.974;2023-03-14T08:56:38;7.00;;;4.10;;
23634;SDS011;11994;51.038;16.974;2023-03-14T08:59:04;8.80;;;4.40;;
23634;SDS011;11994;51.038;16.974;2023-03-14T09:01:30;10.80;;;4.60;;
23634;SDS011;11994;51.038;16.974;2023-03-14T09:03:55;12.10;;;4.80;;
23634;SDS011;11994;51.038;16.974;2023-03-14T09:06:21;12.50;;;6.30;;
23634;SDS011;11994;51.038;16.974;2023-03-14T09:08:46;11.20;;;5.90;;
23634;SDS011;11994;51.038;16.974;2023-03-14T09:11:12;12.60;;;5.40;;
23634;SDS011;11994;51.038;16.974;2023-03-14T09:13:38;9.40;;;5.50;;
23634;SDS011;11994;51.038;16.974;2023-03-14T09:16:03;12.80;;;5.50;;
23634;SDS011;11994;51.038;16.974;2023-03-14T09:18:29;12.80;;;6.80;;
23634;SDS011;11994;51.038;16.974;2023-03-14T09:20:54;12.60;;;6.00;;
23634;SDS011;11994;51.038;16.974;2023-03-14T09:23:20;11.70;;;6.40;;
23634;SDS011;11994;51.038;16.974;2023-03-14T09:25:46;13.40;;;7.60;;
23634;SDS011;11994;51.038;16.974;2023-03-14T09:28:11;14.00;;;7.00;;
23634;SDS011;11994;51.038;16.974;2023-03-14T09:30:37;13.20;;;6.90;;
23634;SDS011;11994;51.038;16.974;2023-03-14T09:33:03;10.60;;;5.90;;
23634;SDS011;11994;51.038;16.974;2023-03-14T09:35:28;9.70;;;5.60;;
23634;SDS011;11994;51.038;16.974;2023-03-14T09:37:54;9.60;;;5.50;;
23634;SDS011;11994;51.038;16.974;2023-03-14T09:40:20;10.70;;;5.90;;
23634;SDS011;11994;51.038;16.974;2023-03-14T09:42:50;12.50;;;6.00;;
23634;SDS011;11994;51.038;16.974;2023-03-14T09:45:25;13.20;;;5.50;;
23634;SDS011;11994;51.038;16.974;2023-03-14T09:47:58;9.30;;;5.10;;
23634;SDS011;11994;51.038;16.974;2023-03-14T09:50:27;13.10;;;5.30;;
23634;SDS011;11994;51.038;16.974;2023-03-14T09:53:02;15.00;;;5.40;;
23634;SDS011;11994;51.038;16.974;2023-03-14T09:55:31;9.40;;;5.10;;
23634;SDS011;11994;51.038;16.974;2023-03-14T09:57:59;12.10;;;6.20;;
23634;SDS011;11994;51.038;16.974;2023-03-14T10:00:27;12.70;;;6.10;;
23634;SDS011;11994;51.038;16.974;2023-03-14T10:05:39;12.80;;;7.30;;
23634;SDS011;11994;51.038;16.974;2023-03-14T10:08:05;11.20;;;6.90;;
23634;SDS011;11994;51.038;16.974;2023-03-14T10:10:31;10.10;;;5.90;;
23634;SDS011;11994;51.038;16.974;2023-03-14T10:12:58;8.90;;;5.50;;
23634;SDS011;11994;51.038;16.974;2023-03-14T10:15:29;10.90;;;5.90;;
23634;SDS011;11994;51.038;16.974;2023-03-14T10:17:58;9.80;;;5.80;;
23634;SDS011;11994;51.038;16.974;2023-03-14T10:20:35;10.60;;;5.90;;
23634;SDS011;11994;51.038;16.974;2023-03-14T10:23:04;10.40;;;5.60;;
23634;SDS011;11994;51.038;16.974;2023-03-14T10:25:33;8.50;;;4.70;;
23634;SDS011;11994;51.038;16.974;2023-03-14T10:27:59;10.40;;;5.40;;
23634;SDS011;11994;51.038;16.974;2023-03-14T10:30:43;10.60;;;5.60;;
23634;SDS011;11994;51.038;16.974;2023-03-14T10:33:15;9.50;;;5.80;;
23634;SDS011;11994;51.038;16.974;2023-03-14T10:35:46;11.30;;;5.50;;
23634;SDS011;11994;51.038;16.974;2023-03-14T10:38:17;15.70;;;5.60;;
23634;SDS011;11994;51.038;16.974;2023-03-14T10:40:50;13.80;;;6.30;;
23634;SDS011;11994;51.038;16.974;2023-03-14T10:43:19;14.70;;;5.90;;
23634;SDS011;11994;51.038;16.974;2023-03-14T10:45:55;11.40;;;5.50;;
23634;SDS011;11994;51.038;16.974;2023-03-14T10:51:12;12.30;;;5.10;;
23634;SDS011;11994;51.038;16.974;2023-03-14T10:53:44;11.80;;;5.90;;
23634;SDS011;11994;51.038;16.974;2023-03-14T10:56:14;11.50;;;5.90;;
23634;SDS011;11994;51.038;16.974;2023-03-14T10:58:42;8.80;;;4.80;;
23634;SDS011;11994;51.038;16.974;2023-03-14T11:01:16;7.30;;;4.40;;
23634;SDS011;11994;51.038;16.974;2023-03-14T11:03:46;7.80;;;3.90;;
23634;SDS011;11994;51.038;16.974;2023-03-14T11:06:26;9.90;;;4.60;;
23634;SDS011;11994;51.038;16.974;2023-03-14T11:11:31;9.80;;;4.50;;
23634;SDS011;11994;51.038;16.974;2023-03-14T11:17:24;9.90;;;5.40;;
23634;SDS011;11994;51.038;16.974;2023-03-14T11:22:47;13.20;;;4.90;;
23634;SDS011;11994;51.038;16.974;2023-03-14T11:28:41;7.90;;;3.60;;
23634;SDS011;11994;51.038;16.974;2023-03-14T11:36:19;5.30;;;2.60;;
23634;SDS011;11994;51.038;16.974;2023-03-14T11:39:16;6.60;;;2.80;;
23634;SDS011;11994;51.038;16.974;2023-03-14T11:41:44;6.30;;;2.40;;
23634;SDS011;11994;51.038;16.974;2023-03-14T11:47:17;6.10;;;2.80;;
23634;SDS011;11994;51.038;16.974;2023-03-14T11:56:34;6.40;;;3.20;;
23634;SDS011;11994;51.038;16.974;2023-03-14T11:59:14;7.30;;;3.40;;
23634;SDS011;11994;51.038;16.974;2023-03-14T12:01:50;10.00;;;3.70;;
23634;SDS011;11994;51.038;16.974;2023-03-14T12:04:27;8.40;;;4.20;;
23634;SDS011;11994;51.038;16.974;2023-03-14T12:07:20;8.00;;;3.90;;
23634;SDS011;11994;51.038;16.974;2023-03-14T12:09:49;12.80;;;4.60;;
23634;SDS011;11994;51.038;16.974;2023-03-14T12:12:18;7.30;;;3.80;;
23634;SDS011;11994;51.038;16.974;2023-03-14T12:14:57;8.60;;;3.80;;
23634;SDS011;11994;51.038;16.974;2023-03-14T12:17:25;7.30;;;4.20;;
23634;SDS011;11994;51.038;16.974;2023-03-14T12:19:59;8.80;;;3.80;;
23634;SDS011;11994;51.038;16.974;2023-03-14T12:22:35;7.10;;;4.20;;
23634;SDS011;11994;51.038;16.974;2023-03-14T12:27:49;8.50;;;4.40;;
23634;SDS011;11994;51.038;16.974;2023-03-14T12:38:45;13.70;;;5.60;;
23634;SDS011;11994;51.038;16.974;2023-03-14T12:41:34;13.60;;;5.70;;
23634;SDS011;11994;51.038;16.974;2023-03-14T12:47:41;11.50;;;4.90;;
23634;SDS011;11994;51.038;16.974;2023-03-14T12:49:42;10.90;;;5.00;;
23634;SDS011;11994;51.038;16.974;2023-03-14T12:52:36;9.60;;;5.00;;
23634;SDS011;11994;51.038;16.974;2023-03-14T12:55:09;8.20;;;4.70;;
23634;SDS011;11994;51.038;16.974;2023-03-14T12:57:53;8.00;;;4.50;;
23634;SDS011;11994;51.038;16.974;2023-03-14T13:00:30;7.70;;;4.30;;
23634;SDS011;11994;51.038;16.974;2023-03-14T13:03:02;6.30;;;4.60;;
23634;SDS011;11994;51.038;16.974;2023-03-14T13:05:59;7.30;;;4.40;;
23634;SDS011;11994;51.038;16.974;2023-03-14T13:08:42;7.30;;;4.20;;
23634;SDS011;11994;51.038;16.974;2023-03-14T13:11:16;7.00;;;3.80;;
23634;SDS011;11994;51.038;16.974;2023-03-14T13:13:48;5.20;;;3.60;;
23634;SDS011;11994;51.038;16.974;2023-03-14T13:16:18;7.80;;;3.80;;
23634;SDS011;11994;51.038;16.974;2023-03-14T13:18:45;8.20;;;4.30;;
23634;SDS011;11994;51.038;16.974;2023-03-14T13:21:19;7.10;;;3.70;;
23634;SDS011;11994;51.038;16.974;2023-03-14T13:26:37;5.60;;;3.20;;
23634;SDS011;11994;51.038;16.974;2023-03-14T13:29:47;6.60;;;3.50;;
23634;SDS011;11994;51.038;16.974;2023-03-14T13:31:57;9.00;;;4.10;;
23634;SDS011;11994;51.038;16.974;2023-03-14T13:34:25;6.80;;;4.20;;
23634;SDS011;11994;51.038;16.974;2023-03-14T13:36:55;7.10;;;3.90;;
23634;SDS011;11994;51.038;16.974;2023-03-14T13:39:21;9.10;;;4.10;;
23634;SDS011;11994;51.038;16.974;2023-03-14T13:41:50;7.40;;;4.10;;
23634;SDS011;11994;51.038;16.974;2023-03-14T13:44:23;10.40;;;4.50;;
23634;SDS011;11994;51.038;16.974;2023-03-14T13:46:49;8.50;;;4.20;;
23634;SDS011;11994;51.038;16.974;2023-03-14T13:49:21;6.70;;;3.60;;
23634;SDS011;11994;51.038;16.974;2023-03-14T13:51:49;6.10;;;4.20;;
23634;SDS011;11994;51.038;16.974;2023-03-14T13:54:15;6.50;;;4.10;;
23634;SDS011;11994;51.038;16.974;2023-03-14T13:56:42;7.00;;;4.70;;
23634;SDS011;11994;51.038;16.974;2023-03-14T14:01:55;6.70;;;4.10;;
23634;SDS011;11994;51.038;16.974;2023-03-14T14:04:24;7.40;;;4.10;;
23634;SDS011;11994;51.038;16.974;2023-03-14T14:09:25;7.60;;;4.90;;
23634;SDS011;11994;51.038;16.974;2023-03-14T14:12:03;9.10;;;5.20;;
23634;SDS011;11994;51.038;16.974;2023-03-14T14:14:42;7.70;;;4.90;;
23634;SDS011;11994;51.038;16.974;2023-03-14T14:17:36;9.10;;;5.20;;
23634;SDS011;11994;51.038;16.974;2023-03-14T14:20:07;7.20;;;4.40;;
23634;SDS011;11994;51.038;16.974;2023-03-14T14:22:41;8.50;;;5.20;;
23634;SDS011;11994;51.038;16.974;2023-03-14T14:25:06;8.10;;;4.80;;
23634;SDS011;11994;51.038;16.974;2023-03-14T14:27:38;10.10;;;5.70;;
23634;SDS011;11994;51.038;16.974;2023-03-14T14:32:42;5.70;;;4.80;;
23634;SDS011;11994;51.038;16.974;2023-03-14T14:35:08;10.70;;;5.70;;
23634;SDS011;11994;51.038;16.974;2023-03-14T14:37:46;6.80;;;4.50;;
23634;SDS011;11994;51.038;16.974;2023-03-14T14:40:16;8.50;;;4.70;;
23634;SDS011;11994;51.038;16.974;2023-03-14T14:42:43;9.40;;;5.30;;
23634;SDS011;11994;51.038;16.974;2023-03-14T14:45:30;10.80;;;4.60;;
23634;SDS011;11994;51.038;16.974;2023-03-14T14:48:05;8.70;;;4.80;;
23634;SDS011;11994;51.038;16.974;2023-03-14T14:50:37;9.50;;;4.90;;
23634;SDS011;11994;51.038;16.974;2023-03-14T14:55:49;6.90;;;4.90;;
23634;SDS011;11994;51.038;16.974;2023-03-14T14:58:23;9.40;;;4.50;;
23634;SDS011;11994;51.038;16.974;2023-03-14T15:00:52;9.30;;;4.90;;
23634;SDS011;11994;51.038;16.974;2023-03-14T15:03:21;8.90;;;4.60;;
23634;SDS011;11994;51.038;16.974;2023-03-14T15:05:46;7.40;;;4.80;;
23634;SDS011;11994;51.038;16.974;2023-03-14T15:08:12;6.60;;;4.50;;
23634;SDS011;11994;51.038;16.974;2023-03-14T15:10:38;9.00;;;5.00;;
23634;SDS011;11994;51.038;16.974;2023-03-14T15:13:05;9.30;;;5.40;;
23634;SDS011;11994;51.038;16.974;2023-03-14T15:15:30;8.10;;;5.30;;
23634;SDS011;11994;51.038;16.974;2023-03-14T15:17:56;9.90;;;6.30;;
23634;SDS011;11994;51.038;16.974;2023-03-14T15:20:22;10.40;;;6.10;;
23634;SDS011;11994;51.038;16.974;2023-03-14T15:22:50;9.00;;;5.80;;
23634;SDS011;11994;51.038;16.974;2023-03-14T15:25:16;10.10;;;5.80;;
23634;SDS011;11994;51.038;16.974;2023-03-14T15:27:41;10.90;;;6.00;;
23634;SDS011;11994;51.038;16.974;2023-03-14T15:30:11;9.50;;;5.70;;
23634;SDS011;11994;51.038;16.974;2023-03-14T15:32:38;9.00;;;5.00;;
23634;SDS011;11994;51.038;16.974;2023-03-14T15:35:03;7.10;;;4.00;;
23634;SDS011;11994;51.038;16.974;2023-03-14T15:37:29;8.90;;;4.40;;
23634;SDS011;11994;51.038;16.974;2023-03-14T15:39:55;11.40;;;4.20;;
23634;SDS011;11994;51.038;16.974;2023-03-14T15:42:23;9.80;;;4.40;;
23634;SDS011;11994;51.038;16.974;2023-03-14T15:44:48;8.00;;;4.40;;
23634;SDS011;11994;51.038;16.974;2023-03-14T15:47:14;8.10;;;4.30;;
23634;SDS011;11994;51.038;16.974;2023-03-14T15:49:39;8.40;;;4.40;;